createdAt,value
2023-09-01T08:04:20.065Z,19.75
2023-09-01T08:07:21.885Z,19.83
2023-09-01T08:10:22.688Z,19.87
2023-09-01T08:13:23.477Z,19.93
2023-09-01T08:16:24.263Z,19.94
2023-09-01T08:19:25.000Z,19.94
2023-09-01T08:22:25.814Z,19.98
2023-09-01T08:25:34.085Z,20.05
2023-09-01T08:28:27.373Z,20.09
2023-09-01T08:31:28.173Z,20.12
2023-09-01T08:34:29.820Z,20.13
2023-09-01T08:37:29.553Z,20.15
2023-09-01T08:40:30.328Z,20.16
2023-09-01T08:43:31.108Z,20.08
2023-09-01T08:46:31.895Z,20.05
2023-09-01T08:49:32.653Z,19.98
2023-09-01T08:53:40.828Z,20.03
2023-09-01T08:56:42.251Z,20.00
2023-09-01T08:59:43.234Z,20.03
2023-09-01T09:02:56.322Z,20.00
2023-09-01T09:05:44.389Z,20.00
2023-09-01T09:08:45.330Z,19.98
2023-09-01T09:11:45.951Z,19.97
2023-09-01T09:14:57.214Z,19.97
2023-09-01T09:17:47.344Z,19.95
2023-09-01T09:20:47.941Z,19.95
2023-09-01T09:23:48.847Z,19.97
2023-09-01T09:26:49.816Z,19.94
2023-09-01T09:29:51.680Z,19.97
2023-09-01T09:32:51.708Z,19.97
2023-09-01T09:35:52.128Z,19.95
2023-09-01T09:38:53.054Z,19.93
2023-09-01T09:41:53.995Z,19.94
2023-09-01T09:44:54.948Z,19.94
2023-09-01T09:47:55.625Z,19.94
2023-09-01T09:50:56.303Z,19.93
2023-09-01T09:53:58.702Z,19.91
2023-09-01T09:56:57.619Z,19.91
2023-09-01T09:59:58.580Z,19.93
2023-09-01T10:02:59.515Z,19.94
2023-09-01T10:06:00.481Z,19.94
2023-09-01T10:09:01.502Z,19.93
2023-09-01T10:12:01.958Z,19.97
2023-09-01T10:15:03.383Z,19.95
2023-09-01T10:18:03.878Z,19.95
2023-09-01T10:21:04.781Z,19.95
2023-09-01T10:24:05.686Z,19.95
2023-09-01T10:27:06.741Z,19.94
2023-09-01T10:30:07.161Z,19.98
2023-09-01T10:33:09.735Z,19.97
2023-09-01T10:36:09.124Z,19.97
2023-09-01T10:39:09.536Z,19.97
2023-09-01T10:42:10.480Z,19.97
2023-09-01T10:45:11.980Z,19.95
2023-09-01T10:48:11.997Z,19.95
2023-09-01T10:51:12.411Z,19.98
2023-09-01T10:54:13.377Z,19.97
2023-09-01T10:57:13.862Z,19.97
2023-09-01T11:00:16.700Z,19.97
2023-09-01T11:03:15.792Z,20.00
2023-09-01T11:06:16.168Z,19.98
2023-09-01T11:09:17.142Z,19.97
2023-09-01T11:12:17.555Z,19.98
2023-09-01T11:15:18.384Z,19.98
2023-09-01T11:18:19.724Z,20.03
2023-09-01T11:21:21.733Z,20.02
2023-09-01T11:24:20.612Z,20.03
2023-09-01T11:27:21.586Z,20.00
2023-09-01T11:30:22.172Z,20.06
2023-09-01T11:33:22.809Z,20.06
2023-09-01T11:36:23.130Z,20.05
2023-09-01T11:39:24.176Z,20.08
2023-09-01T11:42:24.593Z,20.09
2023-09-01T11:45:25.618Z,20.10
2023-09-01T11:48:28.027Z,20.12
2023-09-01T11:51:26.913Z,20.10
2023-09-01T11:54:27.861Z,20.10
2023-09-01T11:57:29.175Z,20.15
2023-09-01T12:00:29.607Z,20.20
2023-09-01T12:03:30.631Z,20.20
2023-09-01T12:06:31.307Z,20.21
2023-09-01T12:09:31.847Z,20.23
2023-09-01T12:12:32.246Z,20.25
2023-09-01T12:15:33.413Z,20.20
2023-09-01T12:18:33.942Z,20.21
2023-09-01T12:21:37.130Z,20.23
2023-09-01T12:24:35.610Z,20.27
2023-09-01T12:27:35.589Z,20.28
2023-09-01T12:30:36.060Z,20.30
2023-09-01T12:33:36.898Z,20.33
2023-09-01T12:36:37.311Z,20.34
2023-09-01T12:39:38.447Z,20.33
2023-09-01T12:42:38.988Z,20.34
2023-09-01T12:45:39.559Z,20.34
2023-09-01T12:48:40.087Z,20.41
2023-09-01T12:51:40.598Z,20.39
2023-09-01T12:54:41.470Z,20.41
2023-09-01T12:57:42.377Z,20.43
2023-09-01T13:00:44.156Z,20.43
2023-09-01T13:03:44.079Z,20.39
2023-09-01T13:06:45.027Z,20.38
2023-09-01T13:09:45.551Z,20.41
2023-09-01T13:12:46.010Z,20.38
2023-09-01T13:15:48.256Z,20.35
2023-09-01T13:18:47.652Z,20.38
2023-09-01T13:21:49.063Z,20.39
2023-09-01T13:24:49.519Z,20.39
2023-09-01T13:27:50.438Z,20.39
2023-09-01T13:30:51.365Z,20.38
2023-09-01T13:33:52.340Z,20.41
2023-09-01T13:36:52.789Z,20.38
2023-09-01T13:39:55.636Z,20.38
2023-09-01T13:42:54.379Z,20.38
2023-09-01T13:45:54.357Z,20.39
2023-09-01T13:48:55.793Z,20.38
2023-09-01T13:51:56.657Z,20.41
2023-09-01T13:54:56.627Z,20.41
2023-09-01T13:57:57.652Z,20.42
2023-09-01T14:00:58.241Z,20.46
2023-09-01T14:03:58.711Z,20.54
2023-09-01T14:06:59.096Z,20.53
2023-09-01T14:10:00.057Z,20.54
2023-09-01T14:13:00.937Z,20.54
2023-09-01T14:16:01.907Z,20.51
2023-09-01T14:19:02.910Z,20.53
2023-09-01T14:22:03.380Z,20.56
2023-09-01T14:25:04.312Z,20.56
2023-09-01T14:28:05.284Z,20.59
2023-09-01T14:31:05.738Z,20.68
2023-09-01T14:34:06.801Z,20.76
2023-09-01T14:37:07.397Z,20.77
2023-09-01T14:40:07.882Z,20.86
2023-09-01T14:43:09.239Z,20.90
2023-09-01T14:46:09.187Z,20.96
2023-09-01T14:49:10.170Z,20.98
2023-09-01T14:52:10.552Z,20.98
2023-09-01T14:55:11.672Z,21.02
2023-09-01T14:58:12.208Z,21.01
2023-09-01T15:01:12.658Z,21.04
2023-09-01T15:04:13.588Z,21.09
2023-09-01T15:07:14.544Z,21.11
2023-09-01T15:10:14.944Z,21.16
2023-09-01T15:13:16.292Z,21.24
2023-09-01T15:16:16.936Z,21.27
